sensor_id;sensor_type;location;lat;lon;timestamp;pressure;altitude;pressure_sealevel;temperature;humidity
29121;BME280;16191;49.548;8.658;2024-02-26T00:01:04;98412.34;;;9.23;100.00
29121;BME280;16191;49.548;8.658;2024-02-26T00:03:31;98418.50;;;9.22;100.00
29121;BME280;16191;49.548;8.658;2024-02-26T00:06:00;98411.53;;;9.22;100.00
29121;BME280;16191;49.548;8.658;2024-02-26T00:08:26;98413.28;;;9.22;100.00
29121;BME280;16191;49.548;8.658;2024-02-26T00:10:53;98407.53;;;9.17;100.00
29121;BME280;16191;49.548;8.658;2024-02-26T00:13:20;98403.91;;;9.19;100.00
29121;BME280;16191;49.548;8.658;2024-02-26T00:15:48;98414.13;;;9.22;100.00
29121;BME280;16191;49.548;8.658;2024-02-26T00:18:15;98415.88;;;9.22;100.00
29121;BME280;16191;49.548;8.658;2024-02-26T00:20:42;98423.59;;;9.23;100.00
29121;BME280;16191;49.548;8.658;2024-02-26T00:23:10;98425.28;;;9.24;100.00
29121;BME280;16191;49.548;8.658;2024-02-26T00:25:36;98428.53;;;9.28;100.00
29121;BME280;16191;49.548;8.658;2024-02-26T00:28:04;98417.16;;;9.29;100.00
29121;BME280;16191;49.548;8.658;2024-02-26T00:30:31;98412.91;;;9.28;100.00
29121;BME280;16191;49.548;8.658;2024-02-26T00:32:58;98410.59;;;9.23;100.00
29121;BME280;16191;49.548;8.658;2024-02-26T00:35:25;98408.72;;;9.25;100.00
29121;BME280;16191;49.548;8.658;2024-02-26T00:37:52;98406.22;;;9.24;100.00
29121;BME280;16191;49.548;8.658;2024-02-26T00:40:19;98404.34;;;9.26;100.00
29121;BME280;16191;49.548;8.658;2024-02-26T00:42:46;98405.09;;;9.28;100.00
29121;BME280;16191;49.548;8.658;2024-02-26T00:45:14;98422.47;;;9.27;100.00
29121;BME280;16191;49.548;8.658;2024-02-26T00:47:42;98417.06;;;9.31;100.00
29121;BME280;16191;49.548;8.658;2024-02-26T00:50:11;98427.50;;;9.31;100.00
29121;BME280;16191;49.548;8.658;2024-02-26T00:52:37;98437.69;;;9.34;100.00
29121;BME280;16191;49.548;8.658;2024-02-26T00:55:05;98441.31;;;9.31;100.00
29121;BME280;16191;49.548;8.658;2024-02-26T00:57:33;98441.13;;;9.34;100.00
29121;BME280;16191;49.548;8.658;2024-02-26T01:00:00;98442.78;;;9.35;100.00
29121;BME280;16191;49.548;8.658;2024-02-26T01:02:27;98454.69;;;9.39;100.00
29121;BME280;16191;49.548;8.658;2024-02-26T01:04:54;98461.75;;;9.37;100.00
29121;BME280;16191;49.548;8.658;2024-02-26T01:07:20;98458.84;;;9.42;100.00
29121;BME280;16191;49.548;8.658;2024-02-26T01:09:47;98461.72;;;9.51;100.00
29121;BME280;16191;49.548;8.658;2024-02-26T01:12:14;98462.66;;;9.50;100.00
29121;BME280;16191;49.548;8.658;2024-02-26T01:14:42;98458.19;;;9.52;100.00
29121;BME280;16191;49.548;8.658;2024-02-26T01:17:09;98468.25;;;9.57;100.00
29121;BME280;16191;49.548;8.658;2024-02-26T01:19:36;98472.44;;;9.59;100.00
29121;BME280;16191;49.548;8.658;2024-02-26T01:22:03;98472.75;;;9.55;100.00
29121;BME280;16191;49.548;8.658;2024-02-26T01:24:29;98461.47;;;9.54;100.00
29121;BME280;16191;49.548;8.658;2024-02-26T01:26:56;98462.94;;;9.46;100.00
29121;BME280;16191;49.548;8.658;2024-02-26T01:29:22;98466.09;;;9.51;100.00
29121;BME280;16191;49.548;8.658;2024-02-26T01:31:49;98462.09;;;9.45;100.00
29121;BME280;16191;49.548;8.658;2024-02-26T01:34:16;98464.81;;;9.44;100.00
29121;BME280;16191;49.548;8.658;2024-02-26T01:36:44;98464.69;;;9.45;100.00
29121;BME280;16191;49.548;8.658;2024-02-26T01:39:11;98474.38;;;9.43;100.00
29121;BME280;16191;49.548;8.658;2024-02-26T01:41:39;98485.91;;;9.39;100.00
29121;BME280;16191;49.548;8.658;2024-02-26T01:44:07;98485.81;;;9.41;100.00
29121;BME280;16191;49.548;8.658;2024-02-26T01:46:35;98493.44;;;9.44;100.00
29121;BME280;16191;49.548;8.658;2024-02-26T01:49:02;98488.03;;;9.47;100.00
29121;BME280;16191;49.548;8.658;2024-02-26T01:51:30;98489.81;;;9.46;100.00
29121;BME280;16191;49.548;8.658;2024-02-26T01:53:59;98493.97;;;9.49;100.00
29121;BME280;16191;49.548;8.658;2024-02-26T01:56:28;98495.66;;;9.50;100.00
29121;BME280;16191;49.548;8.658;2024-02-26T01:58:58;98482.22;;;9.56;98.72
29121;BME280;16191;49.548;8.658;2024-02-26T02:01:27;98495.25;;;9.56;98.90
29121;BME280;16191;49.548;8.658;2024-02-26T02:03:57;98492.53;;;9.57;96.70
29121;BME280;16191;49.548;8.658;2024-02-26T02:06:25;98495.88;;;9.59;98.56
29121;BME280;16191;49.548;8.658;2024-02-26T02:08:56;98503.31;;;9.66;99.32
29121;BME280;16191;49.548;8.658;2024-02-26T02:11:23;98509.84;;;9.58;98.20
29121;BME280;16191;49.548;8.658;2024-02-26T02:13:50;98513.56;;;9.54;98.80
29121;BME280;16191;49.548;8.658;2024-02-26T02:16:17;98512.72;;;9.54;99.50
29121;BME280;16191;49.548;8.658;2024-02-26T02:18:43;98508.56;;;9.51;97.58
29121;BME280;16191;49.548;8.658;2024-02-26T02:21:10;98514.50;;;9.53;98.39
29121;BME280;16191;49.548;8.658;2024-02-26T02:23:38;98520.53;;;9.54;100.00
29121;BME280;16191;49.548;8.658;2024-02-26T02:26:05;98514.91;;;9.47;100.00
29121;BME280;16191;49.548;8.658;2024-02-26T02:28:33;98523.59;;;9.60;100.00
29121;BME280;16191;49.548;8.658;2024-02-26T02:31:00;98517.16;;;9.66;100.00
29121;BME280;16191;49.548;8.658;2024-02-26T02:33:27;98511.59;;;9.58;100.00
29121;BME280;16191;49.548;8.658;2024-02-26T02:35:54;98509.09;;;9.56;100.00
29121;BME280;16191;49.548;8.658;2024-02-26T02:38:22;98524.44;;;9.61;100.00
29121;BME280;16191;49.548;8.658;2024-02-26T02:40:50;98518.47;;;9.59;100.00
29121;BME280;16191;49.548;8.658;2024-02-26T02:43:17;98522.06;;;9.44;100.00
29121;BME280;16191;49.548;8.658;2024-02-26T02:45:43;98510.13;;;9.54;100.00
29121;BME280;16191;49.548;8.658;2024-02-26T02:48:30;98513.66;;;9.53;100.00
29121;BME280;16191;49.548;8.658;2024-02-26T02:51:17;98517.69;;;9.44;100.00
29121;BME280;16191;49.548;8.658;2024-02-26T02:54:04;98510.53;;;9.48;100.00
29121;BME280;16191;49.548;8.658;2024-02-26T02:56:51;98524.88;;;9.41;100.00
29121;BME280;16191;49.548;8.658;2024-02-26T02:59:38;98512.41;;;9.46;100.00
29121;BME280;16191;49.548;8.658;2024-02-26T03:02:25;98517.78;;;9.43;100.00
29121;BME280;16191;49.548;8.658;2024-02-26T03:04:52;98524.03;;;9.40;100.00
29121;BME280;16191;49.548;8.658;2024-02-26T03:07:19;98525.44;;;9.32;100.00
29121;BME280;16191;49.548;8.658;2024-02-26T03:09:46;98534.59;;;9.10;100.00
29121;BME280;16191;49.548;8.658;2024-02-26T03:12:12;98538.97;;;8.96;100.00
29121;BME280;16191;49.548;8.658;2024-02-26T03:14:39;98533.94;;;9.21;100.00
29121;BME280;16191;49.548;8.658;2024-02-26T03:17:06;98541.00;;;9.19;100.00
29121;BME280;16191;49.548;8.658;2024-02-26T03:19:33;98542.56;;;9.21;100.00
29121;BME280;16191;49.548;8.658;2024-02-26T03:22:00;98538.09;;;9.23;100.00
29121;BME280;16191;49.548;8.658;2024-02-26T03:24:26;98536.44;;;9.22;100.00
29121;BME280;16191;49.548;8.658;2024-02-26T03:26:53;98547.88;;;9.20;100.00
29121;BME280;16191;49.548;8.658;2024-02-26T03:29:20;98543.03;;;9.14;100.00
29121;BME280;16191;49.548;8.658;2024-02-26T03:31:47;98546.56;;;9.13;100.00
29121;BME280;16191;49.548;8.658;2024-02-26T03:34:13;98539.59;;;9.13;100.00
29121;BME280;16191;49.548;8.658;2024-02-26T03:36:44;98547.06;;;9.05;100.00
29121;BME280;16191;49.548;8.658;2024-02-26T03:39:11;98548.09;;;9.03;100.00
29121;BME280;16191;49.548;8.658;2024-02-26T03:41:38;98551.63;;;9.02;100.00
29121;BME280;16191;49.548;8.658;2024-02-26T03:44:05;98549.28;;;8.97;100.00
29121;BME280;16191;49.548;8.658;2024-02-26T03:46:31;98543.34;;;8.95;100.00
29121;BME280;16191;49.548;8.658;2024-02-26T03:48:58;98546.53;;;8.86;100.00
29121;BME280;16191;49.548;8.658;2024-02-26T03:51:25;98553.00;;;8.79;100.00
29121;BME280;16191;49.548;8.658;2024-02-26T03:53:53;98552.44;;;8.74;100.00
29121;BME280;16191;49.548;8.658;2024-02-26T03:56:19;98555.50;;;8.66;100.00
29121;BME280;16191;49.548;8.658;2024-02-26T03:58:47;98547.81;;;8.65;100.00
29121;BME280;16191;49.548;8.658;2024-02-26T04:01:13;98544.47;;;8.63;100.00
29121;BME280;16191;49.548;8.658;2024-02-26T04:03:40;98537.84;;;8.57;100.00
29121;BME280;16191;49.548;8.658;2024-02-26T04:06:08;98545.28;;;8.49;100.00
29121;BME280;16191;49.548;8.658;2024-02-26T04:08:36;98550.56;;;8.47;100.00
29121;BME280;16191;49.548;8.658;2024-02-26T04:11:04;98543.16;;;8.41;100.00
29121;BME280;16191;49.548;8.658;2024-02-26T04:13:34;98542.47;;;8.38;100.00
29121;BME280;16191;49.548;8.658;2024-02-26T04:16:01;98534.69;;;8.38;100.00
29121;BME280;16191;49.548;8.658;2024-02-26T04:18:29;98531.25;;;8.37;100.00
29121;BME280;16191;49.548;8.658;2024-02-26T04:20:55;98523.53;;;8.36;100.00
29121;BME280;16191;49.548;8.658;2024-02-26T04:23:24;98519.41;;;8.32;100.00
29121;BME280;16191;49.548;8.658;2024-02-26T04:25:50;98518.84;;;8.26;100.00
29121;BME280;16191;49.548;8.658;2024-02-26T04:28:19;98517.06;;;8.27;100.00
29121;BME280;16191;49.548;8.658;2024-02-26T04:30:52;98508.84;;;8.20;100.00
29121;BME280;16191;49.548;8.658;2024-02-26T04:33:19;98504.47;;;8.21;100.00
29121;BME280;16191;49.548;8.658;2024-02-26T04:35:46;98497.41;;;8.23;100.00
29121;BME280;16191;49.548;8.658;2024-02-26T04:38:12;98492.50;;;8.18;100.00
29121;BME280;16191;49.548;8.658;2024-02-26T04:40:39;98493.09;;;7.94;100.00
29121;BME280;16191;49.548;8.658;2024-02-26T04:43:06;98494.88;;;8.07;100.00
29121;BME280;16191;49.548;8.658;2024-02-26T04:45:33;98493.56;;;8.00;100.00
29121;BME280;16191;49.548;8.658;2024-02-26T04:48:00;98490.97;;;8.00;100.00
29121;BME280;16191;49.548;8.658;2024-02-26T04:50:27;98498.94;;;7.97;100.00
29121;BME280;16191;49.548;8.658;2024-02-26T04:52:54;98490.03;;;8.01;100.00
29121;BME280;16191;49.548;8.658;2024-02-26T04:55:21;98487.41;;;7.87;100.00
29121;BME280;16191;49.548;8.658;2024-02-26T04:57:48;98498.34;;;7.78;100.00
29121;BME280;16191;49.548;8.658;2024-02-26T05:00:15;98493.31;;;7.75;100.00
29121;BME280;16191;49.548;8.658;2024-02-26T05:02:42;98493.41;;;7.73;100.00
29121;BME280;16191;49.548;8.658;2024-02-26T05:05:08;98493.31;;;7.75;100.00
29121;BME280;16191;49.548;8.658;2024-02-26T05:07:42;98481.00;;;7.78;100.00
29121;BME280;16191;49.548;8.658;2024-02-26T05:10:10;98485.59;;;7.73;100.00
29121;BME280;16191;49.548;8.658;2024-02-26T05:12:37;98483.53;;;7.64;100.00
29121;BME280;16191;49.548;8.658;2024-02-26T05:15:04;98475.91;;;7.61;100.00
29121;BME280;16191;49.548;8.658;2024-02-26T05:17:31;98479.16;;;7.65;100.00
29121;BME280;16191;49.548;8.658;2024-02-26T05:19:58;98482.69;;;7.64;100.00
29121;BME280;16191;49.548;8.658;2024-02-26T05:22:25;98475.47;;;7.69;100.00
29121;BME280;16191;49.548;8.658;2024-02-26T05:24:52;98470.78;;;7.60;100.00
29121;BME280;16191;49.548;8.658;2024-02-26T05:27:18;98471.91;;;7.55;100.00
29121;BME280;16191;49.548;8.658;2024-02-26T05:29:45;98478.19;;;7.51;100.00
29121;BME280;16191;49.548;8.658;2024-02-26T05:32:12;98477.63;;;7.46;100.00
29121;BME280;16191;49.548;8.658;2024-02-26T05:34:38;98472.09;;;7.52;100.00
29121;BME280;16191;49.548;8.658;2024-02-26T05:37:06;98471.72;;;7.58;100.00
29121;BME280;16191;49.548;8.658;2024-02-26T05:39:34;98477.78;;;7.43;100.00
29121;BME280;16191;49.548;8.658;2024-02-26T05:42:00;98485.06;;;7.52;100.00
29121;BME280;16191;49.548;8.658;2024-02-26T05:44:27;98488.84;;;7.47;100.00
29121;BME280;16191;49.548;8.658;2024-02-26T05:46:54;98481.63;;;7.52;100.00
29121;BME280;16191;49.548;8.658;2024-02-26T05:49:22;98497.38;;;7.49;100.00
29121;BME280;16191;49.548;8.658;2024-02-26T05:51:49;98490.75;;;7.43;100.00
29121;BME280;16191;49.548;8.658;2024-02-26T05:54:15;98483.97;;;7.41;100.00
29121;BME280;16191;49.548;8.658;2024-02-26T05:56:42;98492.00;;;7.52;100.00
29121;BME280;16191;49.548;8.658;2024-02-26T05:59:09;98488.13;;;7.59;100.00
29121;BME280;16191;49.548;8.658;2024-02-26T06:01:36;98492.84;;;7.52;100.00
29121;BME280;16191;49.548;8.658;2024-02-26T06:04:02;98485.47;;;7.45;100.00
29121;BME280;16191;49.548;8.658;2024-02-26T06:06:29;98495.88;;;7.45;100.00
29121;BME280;16191;49.548;8.658;2024-02-26T06:08:56;98495.44;;;7.37;100.00
29121;BME280;16191;49.548;8.658;2024-02-26T06:11:23;98504.56;;;7.44;100.00
29121;BME280;16191;49.548;8.658;2024-02-26T06:13:49;98509.69;;;7.45;100.00
29121;BME280;16191;49.548;8.658;2024-02-26T06:16:16;98512.59;;;7.39;100.00
29121;BME280;16191;49.548;8.658;2024-02-26T06:18:43;98521.38;;;7.37;100.00
29121;BME280;16191;49.548;8.658;2024-02-26T06:21:11;98526.78;;;7.34;100.00
29121;BME280;16191;49.548;8.658;2024-02-26T06:23:38;98521.25;;;7.24;100.00
29121;BME280;16191;49.548;8.658;2024-02-26T06:26:05;98526.19;;;7.29;100.00
29121;BME280;16191;49.548;8.658;2024-02-26T06:28:32;98536.41;;;7.32;100.00
29121;BME280;16191;49.548;8.658;2024-02-26T06:31:00;98536.88;;;7.38;100.00
29121;BME280;16191;49.548;8.658;2024-02-26T06:33:26;98548.19;;;7.37;100.00
29121;BME280;16191;49.548;8.658;2024-02-26T06:35:54;98554.97;;;7.24;100.00
29121;BME280;16191;49.548;8.658;2024-02-26T06:38:21;98557.00;;;7.35;100.00
29121;BME280;16191;49.548;8.658;2024-02-26T06:40:48;98557.56;;;7.40;100.00
29121;BME280;16191;49.548;8.658;2024-02-26T06:43:15;98560.31;;;7.37;100.00
29121;BME280;16191;49.548;8.658;2024-02-26T06:45:41;98559.31;;;7.39;100.00
29121;BME280;16191;49.548;8.658;2024-02-26T06:48:08;98578.91;;;7.45;100.00
29121;BME280;16191;49.548;8.658;2024-02-26T06:50:35;98570.44;;;7.41;100.00
29121;BME280;16191;49.548;8.658;2024-02-26T06:53:02;98576.72;;;7.37;100.00
29121;BME280;16191;49.548;8.658;2024-02-26T06:55:29;98580.06;;;7.39;100.00
29121;BME280;16191;49.548;8.658;2024-02-26T06:57:56;98583.44;;;7.41;100.00
29121;BME280;16191;49.548;8.658;2024-02-26T07:00:23;98594.63;;;7.42;100.00
29121;BME280;16191;49.548;8.658;2024-02-26T07:02:50;98593.56;;;7.46;100.00
29121;BME280;16191;49.548;8.658;2024-02-26T07:05:16;98593.16;;;7.53;100.00
29121;BME280;16191;49.548;8.658;2024-02-26T07:07:44;98595.47;;;7.58;100.00
29121;BME280;16191;49.548;8.658;2024-02-26T07:10:11;98591.97;;;7.59;100.00
29121;BME280;16191;49.548;8.658;2024-02-26T07:12:39;98593.56;;;7.62;100.00
29121;BME280;16191;49.548;8.658;2024-02-26T07:15:06;98593.06;;;7.71;100.00
29121;BME280;16191;49.548;8.658;2024-02-26T07:17:35;98600.09;;;7.69;100.00
29121;BME280;16191;49.548;8.658;2024-02-26T07:20:02;98596.78;;;7.81;100.00
29121;BME280;16191;49.548;8.658;2024-02-26T07:22:36;98595.31;;;7.77;100.00
29121;BME280;16191;49.548;8.658;2024-02-26T07:25:03;98595.25;;;7.78;100.00
29121;BME280;16191;49.548;8.658;2024-02-26T07:27:30;98604.59;;;7.81;100.00
29121;BME280;16191;49.548;8.658;2024-02-26T07:29:57;98603.94;;;7.77;100.00
29121;BME280;16191;49.548;8.658;2024-02-26T07:32:23;98610.38;;;7.86;100.00
29121;BME280;16191;49.548;8.658;2024-02-26T07:34:50;98614.31;;;7.93;100.00
29121;BME280;16191;49.548;8.658;2024-02-26T07:37:17;98619.59;;;7.91;100.00
29121;BME280;16191;49.548;8.658;2024-02-26T07:39:44;98621.94;;;7.96;100.00
29121;BME280;16191;49.548;8.658;2024-02-26T07:42:11;98620.50;;;7.90;100.00
29121;BME280;16191;49.548;8.658;2024-02-26T07:44:37;98620.69;;;7.87;100.00
29121;BME280;16191;49.548;8.658;2024-02-26T07:47:05;98626.78;;;7.86;100.00
29121;BME280;16191;49.548;8.658;2024-02-26T07:49:32;98625.88;;;7.87;100.00
29121;BME280;16191;49.548;8.658;2024-02-26T07:52:04;98619.66;;;7.90;100.00
29121;BME280;16191;49.548;8.658;2024-02-26T07:54:30;98630.72;;;7.94;100.00
29121;BME280;16191;49.548;8.658;2024-02-26T07:56:57;98629.06;;;7.93;100.00
29121;BME280;16191;49.548;8.658;2024-02-26T07:59:24;98622.84;;;7.95;100.00
29121;BME280;16191;49.548;8.658;2024-02-26T08:01:51;98622.78;;;7.97;100.00
29121;BME280;16191;49.548;8.658;2024-02-26T08:04:22;98621.84;;;7.98;100.00
29121;BME280;16191;49.548;8.658;2024-02-26T08:06:49;98621.09;;;7.96;100.00
29121;BME280;16191;49.548;8.658;2024-02-26T08:09:16;98619.41;;;7.95;100.00
29121;BME280;16191;49.548;8.658;2024-02-26T08:11:43;98613.88;;;8.01;100.00
29121;BME280;16191;49.548;8.658;2024-02-26T08:14:10;98621.47;;;8.04;100.00
29121;BME280;16191;49.548;8.658;2024-02-26T08:16:36;98629.88;;;8.09;100.00
29121;BME280;16191;49.548;8.658;2024-02-26T08:19:03;98629.69;;;8.12;100.00
29121;BME280;16191;49.548;8.658;2024-02-26T08:21:30;98633.38;;;8.08;100.00
29121;BME280;16191;49.548;8.658;2024-02-26T08:23:57;98634.47;;;8.19;100.00
29121;BME280;16191;49.548;8.658;2024-02-26T08:26:24;98628.53;;;8.17;100.00
29121;BME280;16191;49.548;8.658;2024-02-26T08:28:50;98628.16;;;8.23;100.00
29121;BME280;16191;49.548;8.658;2024-02-26T08:31:17;98631.50;;;8.25;100.00
29121;BME280;16191;49.548;8.658;2024-02-26T08:33:44;98639.09;;;8.14;100.00
29121;BME280;16191;49.548;8.658;2024-02-26T08:36:11;98641.34;;;8.20;100.00
29121;BME280;16191;49.548;8.658;2024-02-26T08:38:38;98637.44;;;8.27;100.00
29121;BME280;16191;49.548;8.658;2024-02-26T08:41:05;98642.75;;;8.42;100.00
29121;BME280;16191;49.548;8.658;2024-02-26T08:43:32;98646.09;;;8.44;100.00
29121;BME280;16191;49.548;8.658;2024-02-26T08:45:58;98646.56;;;8.50;100.00
29121;BME280;16191;49.548;8.658;2024-02-26T08:48:25;98649.25;;;8.49;100.00
29121;BME280;16191;49.548;8.658;2024-02-26T08:51:12;98651.41;;;8.56;100.00
29121;BME280;16191;49.548;8.658;2024-02-26T08:53:39;98643.34;;;8.61;100.00
29121;BME280;16191;49.548;8.658;2024-02-26T08:56:10;98634.16;;;8.70;100.00
29121;BME280;16191;49.548;8.658;2024-02-26T08:58:43;98642.63;;;8.73;100.00
29121;BME280;16191;49.548;8.658;2024-02-26T09:01:10;98654.34;;;8.80;100.00
29121;BME280;16191;49.548;8.658;2024-02-26T09:03:37;98649.91;;;8.82;100.00
29121;BME280;16191;49.548;8.658;2024-02-26T09:06:04;98656.03;;;8.81;100.00
29121;BME280;16191;49.548;8.658;2024-02-26T09:08:33;98655.84;;;8.84;100.00
29121;BME280;16191;49.548;8.658;2024-02-26T09:11:00;98661.13;;;8.83;100.00
29121;BME280;16191;49.548;8.658;2024-02-26T09:13:26;98661.81;;;8.86;100.00
29121;BME280;16191;49.548;8.658;2024-02-26T09:15:53;98662.72;;;8.85;100.00
29121;BME280;16191;49.548;8.658;2024-02-26T09:18:21;98662.91;;;8.97;100.00
29121;BME280;16191;49.548;8.658;2024-02-26T09:20:48;98668.41;;;9.06;100.00
29121;BME280;16191;49.548;8.658;2024-02-26T09:23:14;98663.22;;;9.06;100.00
29121;BME280;16191;49.548;8.658;2024-02-26T09:25:41;98671.47;;;9.13;100.00
29121;BME280;16191;49.548;8.658;2024-02-26T09:28:08;98673.53;;;9.08;100.00
29121;BME280;16191;49.548;8.658;2024-02-26T09:30:35;98672.41;;;9.12;100.00
29121;BME280;16191;49.548;8.658;2024-02-26T09:33:02;98674.81;;;9.15;100.00
29121;BME280;16191;49.548;8.658;2024-02-26T09:35:29;98679.09;;;9.16;100.00
29121;BME280;16191;49.548;8.658;2024-02-26T09:37:56;98686.63;;;9.06;100.00
29121;BME280;16191;49.548;8.658;2024-02-26T09:40:24;98693.59;;;9.20;100.00
29121;BME280;16191;49.548;8.658;2024-02-26T09:42:53;98691.28;;;9.15;100.00
29121;BME280;16191;49.548;8.658;2024-02-26T09:45:26;98706.78;;;9.17;100.00
29121;BME280;16191;49.548;8.658;2024-02-26T09:47:55;98705.59;;;9.22;100.00
29121;BME280;16191;49.548;8.658;2024-02-26T09:50:23;98702.81;;;9.25;100.00
29121;BME280;16191;49.548;8.658;2024-02-26T09:52:51;98705.78;;;9.34;100.00
29121;BME280;16191;49.548;8.658;2024-02-26T09:55:19;98699.81;;;9.32;100.00
29121;BME280;16191;49.548;8.658;2024-02-26T09:57:46;98707.75;;;9.30;100.00
29121;BME280;16191;49.548;8.658;2024-02-26T10:00:19;98707.84;;;9.28;100.00
29121;BME280;16191;49.548;8.658;2024-02-26T10:02:47;98712.47;;;9.38;100.00
29121;BME280;16191;49.548;8.658;2024-02-26T10:05:16;98707.53;;;9.33;100.00
29121;BME280;16191;49.548;8.658;2024-02-26T10:07:45;98704.84;;;9.35;100.00
29121;BME280;16191;49.548;8.658;2024-02-26T10:10:14;98707.09;;;9.41;100.00
29121;BME280;16191;49.548;8.658;2024-02-26T10:12:41;98700.88;;;9.43;100.00
29121;BME280;16191;49.548;8.658;2024-02-26T10:15:08;98697.59;;;9.54;100.00
29121;BME280;16191;49.548;8.658;2024-02-26T10:17:35;98702.34;;;9.61;100.00
29121;BME280;16191;49.548;8.658;2024-02-26T10:20:17;98701.06;;;9.69;100.00
29121;BME280;16191;49.548;8.658;2024-02-26T10:22:45;98712.56;;;9.79;100.00
29121;BME280;16191;49.548;8.658;2024-02-26T10:25:12;98710.78;;;9.93;100.00
29121;BME280;16191;49.548;8.658;2024-02-26T10:27:40;98698.97;;;9.88;100.00
29121;BME280;16191;49.548;8.658;2024-02-26T10:30:18;98700.56;;;9.90;100.00
29121;BME280;16191;49.548;8.658;2024-02-26T10:32:46;98707.13;;;10.10;100.00
29121;BME280;16191;49.548;8.658;2024-02-26T10:35:34;98713.34;;;10.08;100.00
29121;BME280;16191;49.548;8.658;2024-02-26T10:38:25;98720.88;;;10.12;100.00
29121;BME280;16191;49.548;8.658;2024-02-26T10:40:52;98708.97;;;10.22;100.00
29121;BME280;16191;49.548;8.658;2024-02-26T10:43:19;98717.25;;;10.29;100.00
29121;BME280;16191;49.548;8.658;2024-02-26T10:45:46;98714.66;;;10.42;100.00
29121;BME280;16191;49.548;8.658;2024-02-26T10:48:14;98716.69;;;10.51;100.00
29121;BME280;16191;49.548;8.658;2024-02-26T10:50:41;98723.13;;;10.72;100.00
29121;BME280;16191;49.548;8.658;2024-02-26T10:53:13;98720.75;;;10.82;100.00
29121;BME280;16191;49.548;8.658;2024-02-26T10:55:48;98713.13;;;10.91;100.00
29121;BME280;16191;49.548;8.658;2024-02-26T10:58:16;98715.25;;;11.12;100.00
29121;BME280;16191;49.548;8.658;2024-02-26T11:00:43;98719.56;;;11.25;100.00
29121;BME280;16191;49.548;8.658;2024-02-26T11:03:11;98717.13;;;11.35;100.00
29121;BME280;16191;49.548;8.658;2024-02-26T11:05:38;98720.69;;;11.34;100.00
29121;BME280;16191;49.548;8.658;2024-02-26T11:08:07;98735.09;;;11.27;100.00
29121;BME280;16191;49.548;8.658;2024-02-26T11:10:35;98740.53;;;11.37;100.00
29121;BME280;16191;49.548;8.658;2024-02-26T11:13:02;98737.09;;;11.49;100.00
29121;BME280;16191;49.548;8.658;2024-02-26T11:15:32;98741.91;;;11.42;100.00
29121;BME280;16191;49.548;8.658;2024-02-26T11:18:01;98743.66;;;11.54;100.00
29121;BME280;16191;49.548;8.658;2024-02-26T11:20:28;98741.59;;;11.59;100.00
29121;BME280;16191;49.548;8.658;2024-02-26T11:22:56;98745.44;;;11.54;100.00
29121;BME280;16191;49.548;8.658;2024-02-26T11:25:23;98750.34;;;11.71;100.00
29121;BME280;16191;49.548;8.658;2024-02-26T11:27:54;98748.81;;;11.81;100.00
29121;BME280;16191;49.548;8.658;2024-02-26T11:30:25;98738.94;;;11.97;100.00
29121;BME280;16191;49.548;8.658;2024-02-26T11:32:53;98745.75;;;12.00;100.00
29121;BME280;16191;49.548;8.658;2024-02-26T11:35:20;98748.44;;;12.11;100.00
29121;BME280;16191;49.548;8.658;2024-02-26T11:37:57;98747.50;;;12.12;100.00
29121;BME280;16191;49.548;8.658;2024-02-26T11:40:25;98746.63;;;12.24;100.00
29121;BME280;16191;49.548;8.658;2024-02-26T11:42:52;98747.97;;;12.30;100.00
29121;BME280;16191;49.548;8.658;2024-02-26T11:48:20;98743.97;;;12.61;100.00
29121;BME280;16191;49.548;8.658;2024-02-26T11:50:50;98741.28;;;12.74;100.00
29121;BME280;16191;49.548;8.658;2024-02-26T11:53:27;98748.84;;;12.89;100.00
29121;BME280;16191;49.548;8.658;2024-02-26T11:56:34;98746.25;;;13.00;100.00
29121;BME280;16191;49.548;8.658;2024-02-26T11:59:04;98747.13;;;13.12;100.00
29121;BME280;16191;49.548;8.658;2024-02-26T12:01:46;98741.59;;;13.28;100.00
29121;BME280;16191;49.548;8.658;2024-02-26T12:04:26;98745.66;;;13.32;100.00
29121;BME280;16191;49.548;8.658;2024-02-26T12:07:01;98751.63;;;13.45;100.00
29121;BME280;16191;49.548;8.658;2024-02-26T12:09:36;98751.50;;;13.47;100.00
29121;BME280;16191;49.548;8.658;2024-02-26T12:12:05;98751.06;;;13.53;100.00
29121;BME280;16191;49.548;8.658;2024-02-26T12:14:53;98752.25;;;13.60;100.00
29121;BME280;16191;49.548;8.658;2024-02-26T12:17:23;98756.91;;;13.56;100.00
29121;BME280;16191;49.548;8.658;2024-02-26T12:19:51;98751.88;;;13.64;100.00
29121;BME280;16191;49.548;8.658;2024-02-26T12:22:20;98753.09;;;13.94;100.00
29121;BME280;16191;49.548;8.658;2024-02-26T12:24:46;98753.19;;;14.15;100.00
29121;BME280;16191;49.548;8.658;2024-02-26T12:27:13;98752.84;;;14.08;100.00
29121;BME280;16191;49.548;8.658;2024-02-26T12:29:41;98763.91;;;13.67;100.00
29121;BME280;16191;49.548;8.658;2024-02-26T12:32:08;98762.03;;;13.80;100.00
29121;BME280;16191;49.548;8.658;2024-02-26T12:34:37;98762.13;;;14.12;100.00
29121;BME280;16191;49.548;8.658;2024-02-26T12:37:04;98763.69;;;14.15;100.00
29121;BME280;16191;49.548;8.658;2024-02-26T12:39:31;98765.22;;;14.28;100.00
29121;BME280;16191;49.548;8.658;2024-02-26T12:41:58;98763.16;;;14.32;100.00
29121;BME280;16191;49.548;8.658;2024-02-26T12:44:26;98769.38;;;14.31;100.00
29121;BME280;16191;49.548;8.658;2024-02-26T12:47:00;98771.56;;;14.03;100.00
29121;BME280;16191;49.548;8.658;2024-02-26T12:49:30;98766.53;;;14.45;100.00
29121;BME280;16191;49.548;8.658;2024-02-26T12:51:58;98769.06;;;14.24;100.00
29121;BME280;16191;49.548;8.658;2024-02-26T12:54:30;98771.75;;;14.56;100.00
29121;BME280;16191;49.548;8.658;2024-02-26T12:56:59;98760.78;;;14.51;100.00
29121;BME280;16191;49.548;8.658;2024-02-26T12:59:27;98769.28;;;13.54;100.00
29121;BME280;16191;49.548;8.658;2024-02-26T13:01:54;98764.44;;;14.05;100.00
29121;BME280;16191;49.548;8.658;2024-02-26T13:04:21;98766.41;;;14.47;100.00
29121;BME280;16191;49.548;8.658;2024-02-26T13:06:48;98765.19;;;14.51;100.00